Time;durP1;ratioP1;P1;durP2;ratioP2;P2;SDS_P1;SDS_P2;PMS_P1;PMS_P2;Temp;Humidity;BMP_temperature;BMP_pressure;BME280_temperature;BME280_humidity;BME280_pressure;Samples;Min_cycle;Max_cycle;Signal;HPM_P1;HPM_P2
2022/10/19 00:01:24;;;;;;;5.50;2.30;;;12.60;99.90;;;;;;5128330;27;20241;-68
2022/10/19 00:03:53;;;;;;;8.73;2.53;;;12.60;99.90;;;;;;5128906;27;20186;-68
2022/10/19 00:06:24;;;;;;;4.93;2.60;;;12.70;99.90;;;;;;5128100;27;20233;-69
2022/10/19 00:08:53;;;;;;;4.23;2.67;;;12.70;99.90;;;;;;5128760;27;20201;-68
2022/10/19 00:11:20;;;;;;;7.70;3.10;;;12.60;99.90;;;;;;5128178;27;20562;-69
2022/10/19 00:13:46;;;;;;;8.73;3.40;;;12.60;99.90;;;;;;5120587;27;20271;-69
2022/10/19 00:16:15;;;;;;;5.17;2.17;;;12.60;99.90;;;;;;5110354;28;20209;-68
2022/10/19 00:18:43;;;;;;;7.33;2.90;;;12.50;99.90;;;;;;5131188;27;20204;-68
2022/10/19 00:21:12;;;;;;;4.53;2.40;;;12.50;99.90;;;;;;5135230;27;20201;-69
2022/10/19 00:23:39;;;;;;;4.67;2.40;;;12.60;99.90;;;;;;5135455;27;20212;-68
2022/10/19 00:26:08;;;;;;;4.73;2.57;;;12.50;99.90;;;;;;5134833;27;20232;-68
2022/10/19 00:28:35;;;;;;;6.03;2.50;;;12.40;99.90;;;;;;5135284;27;20208;-69
2022/10/19 00:31:03;;;;;;;5.23;2.23;;;12.40;99.90;;;;;;5135073;27;20223;-69
2022/10/19 00:33:30;;;;;;;4.83;2.50;;;12.40;99.90;;;;;;5135177;27;20201;-69
2022/10/19 00:35:57;;;;;;;4.90;2.33;;;12.30;99.90;;;;;;5135006;27;20561;-69
2022/10/19 00:38:24;;;;;;;6.17;2.73;;;12.30;99.90;;;;;;5135597;27;20209;-69
2022/10/19 00:40:50;;;;;;;3.23;1.90;;;12.40;99.90;;;;;;5134758;27;20201;-69
2022/10/19 00:43:22;;;;;;;6.40;2.20;;;12.40;99.90;;;;;;5135028;27;20232;-69
2022/10/19 00:45:49;;;;;;;6.33;2.10;;;12.30;99.90;;;;;;5134891;27;20740;-69
2022/10/19 00:48:21;;;;;;;4.30;2.20;;;12.40;99.90;;;;;;5133507;27;20205;-69
2022/10/19 00:50:50;;;;;;;5.43;2.40;;;12.40;99.90;;;;;;5114599;27;20198;-69
2022/10/19 00:53:17;;;;;;;6.73;2.10;;;12.50;99.90;;;;;;5114284;27;20214;-69
2022/10/19 00:55:45;;;;;;;5.00;2.23;;;12.50;99.90;;;;;;5123980;27;20217;-69
2022/10/19 00:58:12;;;;;;;6.73;2.30;;;12.40;99.90;;;;;;5134904;27;20209;-69
2022/10/19 01:00:40;;;;;;;5.80;2.57;;;12.50;99.90;;;;;;5134383;27;20781;-69
2022/10/19 01:03:09;;;;;;;5.03;2.50;;;12.50;99.90;;;;;;5134617;27;20252;-69
2022/10/19 01:05:36;;;;;;;5.70;2.40;;;12.60;99.90;;;;;;5134474;27;20750;-69
2022/10/19 01:08:04;;;;;;;6.63;2.30;;;12.60;99.90;;;;;;5134633;27;20206;-69
2022/10/19 01:10:38;;;;;;;5.93;1.83;;;12.70;99.90;;;;;;5134301;27;20212;-69
2022/10/19 01:13:16;;;;;;;7.63;2.37;;;12.70;99.90;;;;;;5133827;27;20228;-69
2022/10/19 01:15:54;;;;;;;6.20;2.13;;;12.80;99.90;;;;;;5114301;28;20206;-69
2022/10/19 01:18:27;;;;;;;6.93;2.10;;;12.70;99.90;;;;;;5129956;27;20197;-69
2022/10/19 01:21:19;;;;;;;3.70;1.73;;;12.80;99.90;;;;;;5134314;27;20730;-70
2022/10/19 01:24:28;;;;;;;7.20;2.30;;;12.80;99.90;;;;;;5108468;27;20798;-69
2022/10/19 01:27:17;;;;;;;4.03;1.90;;;12.80;99.90;;;;;;5113541;27;20228;-69
2022/10/19 01:30:00;;;;;;;6.87;2.30;;;12.80;99.90;;;;;;5110432;28;20198;-71
2022/10/19 01:32:35;;;;;;;6.27;2.13;;;12.80;99.90;;;;;;5110934;27;20261;-71
2022/10/19 01:35:07;;;;;;;3.03;1.90;;;12.80;99.90;;;;;;5120094;27;20213;-71
2022/10/19 01:37:39;;;;;;;5.10;2.00;;;12.70;99.90;;;;;;5131056;27;20202;-70
2022/10/19 01:40:11;;;;;;;5.17;2.33;;;12.70;99.90;;;;;;5131339;27;20198;-70
2022/10/19 01:42:45;;;;;;;4.63;1.80;;;12.60;99.90;;;;;;5131207;27;20190;-71
2022/10/19 01:45:18;;;;;;;3.47;1.63;;;12.60;99.90;;;;;;5130766;27;20699;-71
2022/10/19 01:47:51;;;;;;;5.07;1.80;;;12.60;99.90;;;;;;5131268;27;20529;-71
2022/10/19 01:50:25;;;;;;;5.70;1.63;;;12.60;99.90;;;;;;5131027;27;20201;-71
2022/10/19 01:52:53;;;;;;;4.93;2.13;;;12.60;99.90;;;;;;5130993;27;20210;-70
2022/10/19 01:55:21;;;;;;;5.30;1.70;;;12.60;99.90;;;;;;5130717;27;20234;-71
2022/10/19 01:57:54;;;;;;;5.13;1.60;;;12.60;99.90;;;;;;5131243;27;20217;-71
2022/10/19 02:00:23;;;;;;;6.00;1.87;;;12.60;99.90;;;;;;5131023;27;20190;-71
2022/10/19 02:02:53;;;;;;;5.80;1.97;;;12.60;99.90;;;;;;5130592;27;20328;-70
2022/10/19 02:05:22;;;;;;;3.00;1.73;;;12.60;99.90;;;;;;5130738;27;20221;-71
2022/10/19 02:07:55;;;;;;;5.03;1.70;;;12.60;99.90;;;;;;5111731;27;20227;-71
2022/10/19 02:10:22;;;;;;;1.93;1.50;;;12.60;99.90;;;;;;5120417;27;20217;-71
2022/10/19 02:12:50;;;;;;;3.70;1.80;;;12.60;99.90;;;;;;5123426;27;20206;-69
2022/10/19 02:15:21;;;;;;;3.70;1.63;;;12.60;99.90;;;;;;5130473;27;20221;-69
2022/10/19 02:17:54;;;;;;;7.03;1.77;;;12.70;99.90;;;;;;5130146;27;20619;-67
2022/10/19 02:20:21;;;;;;;4.90;1.70;;;12.50;99.90;;;;;;5130161;27;20229;-66
2022/10/19 02:22:48;;;;;;;6.37;1.83;;;12.40;99.90;;;;;;5130340;27;20209;-66
2022/10/19 02:25:15;;;;;;;3.93;2.20;;;12.30;99.90;;;;;;5129947;27;20225;-66
2022/10/19 02:27:42;;;;;;;3.70;1.80;;;12.30;99.90;;;;;;5126638;27;20209;-66
2022/10/19 02:30:10;;;;;;;3.73;1.63;;;12.30;99.90;;;;;;5107429;28;20601;-66
2022/10/19 02:32:37;;;;;;;2.77;1.60;;;12.30;99.90;;;;;;5114701;27;20217;-67
2022/10/19 02:35:06;;;;;;;4.63;2.00;;;12.30;99.90;;;;;;5118353;27;20214;-67
2022/10/19 02:37:33;;;;;;;1.87;1.77;;;12.20;99.90;;;;;;5107845;28;20578;-66
2022/10/19 02:40:00;;;;;;;5.87;1.93;;;12.20;99.90;;;;;;5107715;28;20210;-66
2022/10/19 02:42:32;;;;;;;4.23;1.70;;;12.20;99.90;;;;;;5107144;28;20214;-66
2022/10/19 02:45:06;;;;;;;5.67;1.73;;;12.20;99.90;;;;;;5116127;27;20193;-67
2022/10/19 02:47:36;;;;;;;3.63;1.50;;;12.10;99.90;;;;;;5127552;27;20193;-67
2022/10/19 02:50:08;;;;;;;7.13;2.27;;;12.10;99.90;;;;;;5110963;27;20202;-67
2022/10/19 02:52:37;;;;;;;4.17;1.73;;;12.10;99.90;;;;;;5119816;27;20213;-67
2022/10/19 02:55:04;;;;;;;4.77;1.80;;;12.20;99.90;;;;;;5127651;27;20224;-67
2022/10/19 02:57:31;;;;;;;5.50;1.80;;;12.20;99.90;;;;;;5127525;27;20213;-67
2022/10/19 02:59:59;;;;;;;3.80;1.60;;;12.20;99.90;;;;;;5126795;27;20611;-67
2022/10/19 03:02:26;;;;;;;3.17;1.53;;;12.30;99.90;;;;;;5126697;27;20221;-67
2022/10/19 03:04:53;;;;;;;6.07;1.50;;;12.30;99.90;;;;;;5119269;27;20198;-67
2022/10/19 03:07:22;;;;;;;4.70;1.50;;;12.30;99.90;;;;;;5108165;28;20221;-67
2022/10/19 03:09:49;;;;;;;4.37;1.53;;;12.30;99.90;;;;;;5107764;27;20209;-67
2022/10/19 03:12:17;;;;;;;4.43;1.70;;;12.20;99.90;;;;;;5108451;27;20210;-67
2022/10/19 03:14:44;;;;;;;4.63;1.70;;;12.30;99.90;;;;;;5108548;28;20206;-67
2022/10/19 03:17:10;;;;;;;3.83;2.30;;;12.30;99.90;;;;;;5108738;28;20206;-67
2022/10/19 03:19:37;;;;;;;6.93;2.07;;;12.40;99.90;;;;;;5108269;28;20589;-68
2022/10/19 03:22:04;;;;;;;4.07;2.23;;;12.30;99.90;;;;;;5117274;27;20224;-67
2022/10/19 03:24:33;;;;;;;3.20;2.17;;;12.30;99.90;;;;;;5129144;27;20205;-67
2022/10/19 03:27:00;;;;;;;8.10;2.50;;;12.30;99.90;;;;;;5129297;27;20233;-67
2022/10/19 03:29:26;;;;;;;2.67;2.20;;;12.30;99.90;;;;;;5129149;27;20201;-67
2022/10/19 03:31:54;;;;;;;6.83;1.77;;;12.30;99.90;;;;;;5129293;27;20222;-67
2022/10/19 03:34:21;;;;;;;5.70;1.57;;;12.30;99.90;;;;;;5128942;27;20213;-67
2022/10/19 03:36:47;;;;;;;5.67;2.47;;;12.40;99.90;;;;;;5128899;27;20687;-67
2022/10/19 03:39:15;;;;;;;3.90;1.90;;;12.50;99.90;;;;;;5128940;27;20209;-68
2022/10/19 03:41:44;;;;;;;2.03;1.47;;;12.40;99.90;;;;;;5128787;27;20205;-68
2022/10/19 03:44:12;;;;;;;5.17;2.30;;;12.40;99.90;;;;;;5128554;27;20210;-67
2022/10/19 03:46:39;;;;;;;2.93;1.60;;;12.30;99.90;;;;;;5128852;27;20232;-67
2022/10/19 03:49:06;;;;;;;4.53;2.57;;;12.40;99.90;;;;;;5128915;27;20213;-68
2022/10/19 03:51:34;;;;;;;5.17;2.70;;;12.30;99.90;;;;;;5127974;27;20739;-67
2022/10/19 03:54:03;;;;;;;4.50;3.40;;;12.30;99.90;;;;;;5128848;27;20205;-67
2022/10/19 03:56:31;;;;;;;6.13;3.00;;;12.30;99.90;;;;;;5128356;27;20216;-67
2022/10/19 03:59:01;;;;;;;2.73;1.30;;;12.40;99.90;;;;;;5119229;27;20210;-67
2022/10/19 04:01:30;;;;;;;3.33;1.57;;;12.40;99.90;;;;;;5118944;27;20237;-68
2022/10/19 04:03:58;;;;;;;3.73;1.53;;;12.40;99.90;;;;;;5128179;27;20209;-68
2022/10/19 04:06:28;;;;;;;3.63;1.60;;;12.40;99.90;;;;;;5127896;27;20719;-67
2022/10/19 04:08:55;;;;;;;3.60;1.17;;;12.40;99.90;;;;;;5128205;27;20202;-67
2022/10/19 04:11:23;;;;;;;3.30;1.50;;;12.40;99.90;;;;;;5128062;27;20202;-68
2022/10/19 04:13:51;;;;;;;4.20;1.43;;;12.40;99.90;;;;;;5128181;27;20668;-67
2022/10/19 04:16:21;;;;;;;2.83;0.70;;;12.40;99.90;;;;;;5128272;27;20213;-67
2022/10/19 04:18:48;;;;;;;3.43;1.00;;;12.40;99.90;;;;;;5128531;27;20232;-67
2022/10/19 04:21:22;;;;;;;4.27;1.00;;;12.40;99.90;;;;;;5128198;27;20197;-67
2022/10/19 04:23:50;;;;;;;3.30;0.90;;;12.40;99.90;;;;;;5128629;27;20196;-68
2022/10/19 04:26:17;;;;;;;2.90;0.80;;;12.40;99.90;;;;;;5127865;27;20241;-68
2022/10/19 04:28:43;;;;;;;3.73;0.90;;;12.40;99.90;;;;;;5128268;27;20204;-67
2022/10/19 04:31:11;;;;;;;2.17;0.83;;;12.30;99.90;;;;;;5128232;27;20205;-67
2022/10/19 04:33:40;;;;;;;4.83;0.97;;;12.30;99.90;;;;;;5128297;27;20209;-67
2022/10/19 04:36:08;;;;;;;2.67;0.90;;;12.20;99.90;;;;;;5128166;27;20299;-67
2022/10/19 04:38:36;;;;;;;1.47;0.97;;;12.20;99.90;;;;;;5128209;27;20201;-67
2022/10/19 04:41:04;;;;;;;1.27;0.77;;;12.20;99.90;;;;;;5124582;27;20209;-67
2022/10/19 04:43:31;;;;;;;3.60;0.90;;;12.20;99.90;;;;;;5128267;27;20201;-68
2022/10/19 04:46:02;;;;;;;4.27;1.00;;;12.20;99.90;;;;;;5127917;27;20232;-67
2022/10/19 04:48:29;;;;;;;2.10;1.00;;;12.20;99.90;;;;;;5124478;27;20194;-67
2022/10/19 04:50:57;;;;;;;1.07;1.00;;;12.20;99.90;;;;;;5107125;28;20202;-67
2022/10/19 04:53:24;;;;;;;2.73;0.90;;;12.20;99.90;;;;;;5127091;28;20208;-67
2022/10/19 04:55:51;;;;;;;2.20;1.30;;;12.20;99.90;;;;;;5112848;27;20794;-68
2022/10/19 04:58:18;;;;;;;4.80;1.13;;;12.30;99.90;;;;;;5120578;28;20209;-68
2022/10/19 05:00:45;;;;;;;3.73;1.17;;;12.30;99.90;;;;;;5107499;28;20209;-67
2022/10/19 05:03:11;;;;;;;2.93;1.33;;;12.40;99.90;;;;;;5114959;27;20831;-67
2022/10/19 05:05:38;;;;;;;2.57;1.23;;;12.50;99.90;;;;;;5130389;27;20238;-67
2022/10/19 05:08:06;;;;;;;2.67;1.27;;;12.50;99.90;;;;;;5131468;27;20904;-67
2022/10/19 05:10:33;;;;;;;1.90;1.33;;;12.50;99.90;;;;;;5130918;27;20664;-67
2022/10/19 05:13:01;;;;;;;2.87;0.90;;;12.50;99.90;;;;;;5131789;27;20212;-68
2022/10/19 05:15:28;;;;;;;2.07;1.00;;;12.60;99.90;;;;;;5131481;27;20197;-67
2022/10/19 05:17:55;;;;;;;2.77;1.37;;;12.60;99.90;;;;;;5131893;27;20205;-67
2022/10/19 05:20:22;;;;;;;5.80;1.53;;;12.60;99.90;;;;;;5131358;27;20225;-67
2022/10/19 05:22:49;;;;;;;2.83;1.67;;;12.70;99.90;;;;;;5117148;27;20206;-67
2022/10/19 05:25:17;;;;;;;1.77;1.10;;;12.60;99.90;;;;;;5111055;28;20198;-68
2022/10/19 05:27:44;;;;;;;1.80;1.37;;;12.60;99.90;;;;;;5110896;28;20221;-67
2022/10/19 05:30:13;;;;;;;3.20;1.60;;;12.60;99.90;;;;;;5110795;28;20240;-68
2022/10/19 05:32:39;;;;;;;2.70;1.10;;;12.60;99.90;;;;;;5110806;28;20206;-67
2022/10/19 05:35:07;;;;;;;2.77;1.47;;;12.60;99.90;;;;;;5120725;27;20574;-67
2022/10/19 05:37:34;;;;;;;5.53;1.30;;;12.50;99.90;;;;;;5130798;27;20750;-67
2022/10/19 05:40:00;;;;;;;2.83;1.47;;;12.50;99.90;;;;;;5131271;27;20217;-67
2022/10/19 05:42:28;;;;;;;2.83;1.10;;;12.50;99.90;;;;;;5131044;27;20212;-67
2022/10/19 05:44:55;;;;;;;1.80;1.30;;;12.50;99.90;;;;;;5131424;27;20227;-67
2022/10/19 05:47:22;;;;;;;1.90;0.80;;;12.50;99.90;;;;;;5131101;27;20226;-67
2022/10/19 05:49:48;;;;;;;3.87;1.10;;;12.50;99.90;;;;;;5116169;27;20209;-68
2022/10/19 05:52:16;;;;;;;1.90;0.97;;;12.40;99.90;;;;;;5116514;27;20727;-67
2022/10/19 05:54:43;;;;;;;3.40;1.40;;;12.40;99.90;;;;;;5128105;27;20212;-67
2022/10/19 05:57:10;;;;;;;5.83;1.10;;;12.20;99.90;;;;;;5130583;27;20201;-67
2022/10/19 05:59:38;;;;;;;4.33;1.17;;;12.20;99.90;;;;;;5130949;27;20206;-67
2022/10/19 06:02:05;;;;;;;3.97;1.60;;;12.20;99.90;;;;;;5130638;27;20233;-67
2022/10/19 06:04:32;;;;;;;2.40;1.23;;;12.10;99.90;;;;;;5129861;27;20199;-67
2022/10/19 06:07:00;;;;;;;1.40;1.00;;;12.00;99.90;;;;;;5130676;27;20236;-67
2022/10/19 06:09:27;;;;;;;2.50;1.00;;;12.00;99.90;;;;;;5130788;27;20208;-67
2022/10/19 06:11:54;;;;;;;3.27;1.23;;;11.90;99.90;;;;;;5130506;27;20559;-67
2022/10/19 06:14:20;;;;;;;2.60;1.20;;;11.90;99.90;;;;;;5129752;27;20291;-67
2022/10/19 06:16:48;;;;;;;3.47;1.70;;;12.00;99.90;;;;;;5130069;27;20209;-67
2022/10/19 06:19:15;;;;;;;2.53;1.10;;;12.10;99.90;;;;;;5109783;28;20218;-67
2022/10/19 06:21:44;;;;;;;2.97;1.10;;;12.10;99.90;;;;;;5109848;28;20320;-68
2022/10/19 06:24:12;;;;;;;3.97;1.10;;;12.10;99.90;;;;;;5109649;28;20749;-68
2022/10/19 06:26:39;;;;;;;4.07;1.33;;;12.20;99.90;;;;;;5109640;28;20599;-67
2022/10/19 06:29:06;;;;;;;2.63;1.10;;;12.30;99.90;;;;;;5109855;28;20202;-67
2022/10/19 06:31:35;;;;;;;4.10;1.40;;;12.30;99.90;;;;;;5109534;28;20214;-67
2022/10/19 06:34:03;;;;;;;4.33;1.10;;;12.30;99.90;;;;;;5129090;27;20197;-67
2022/10/19 06:36:31;;;;;;;4.30;1.20;;;12.30;99.90;;;;;;5129845;27;20217;-67
2022/10/19 06:38:58;;;;;;;1.77;1.00;;;12.30;99.90;;;;;;5130421;27;20297;-67
2022/10/19 06:41:25;;;;;;;1.97;1.07;;;12.30;99.90;;;;;;5129646;27;20208;-68
2022/10/19 06:43:52;;;;;;;5.47;1.40;;;12.20;99.90;;;;;;5130078;27;20212;-67
2022/10/19 06:46:22;;;;;;;3.43;1.10;;;12.10;99.90;;;;;;5129385;27;20643;-68
2022/10/19 06:48:53;;;;;;;2.30;0.80;;;12.10;99.90;;;;;;5123634;27;20212;-67
2022/10/19 06:51:22;;;;;;;2.80;1.33;;;12.10;99.90;;;;;;5109225;28;20202;-67
2022/10/19 06:53:48;;;;;;;3.77;1.43;;;12.20;99.90;;;;;;5109172;28;20215;-67
2022/10/19 06:56:15;;;;;;;4.73;1.10;;;12.10;99.90;;;;;;5108728;28;20198;-67
2022/10/19 06:58:42;;;;;;;3.77;1.00;;;12.20;99.90;;;;;;5109234;28;20202;-67
2022/10/19 07:01:10;;;;;;;3.90;1.03;;;12.20;99.90;;;;;;5108659;28;20220;-67
2022/10/19 07:03:38;;;;;;;4.93;1.23;;;12.20;99.90;;;;;;5109141;28;20198;-67
2022/10/19 07:06:07;;;;;;;6.10;1.20;;;12.10;99.90;;;;;;5109121;28;20239;-67
2022/10/19 07:08:37;;;;;;;3.20;0.97;;;12.10;99.90;;;;;;5109009;28;20226;-67
2022/10/19 07:11:06;;;;;;;5.73;1.40;;;12.00;99.90;;;;;;5109109;27;20201;-67
2022/10/19 07:13:33;;;;;;;4.40;1.20;;;12.00;99.90;;;;;;5113554;27;20193;-67
2022/10/19 07:16:04;;;;;;;3.60;0.80;;;12.10;99.90;;;;;;5129605;27;20205;-67
2022/10/19 07:18:31;;;;;;;3.37;1.40;;;12.10;99.90;;;;;;5129312;27;20226;-67
2022/10/19 07:20:59;;;;;;;1.57;1.00;;;12.10;99.90;;;;;;5129303;27;20209;-67
2022/10/19 07:23:27;;;;;;;2.87;1.40;;;12.10;99.90;;;;;;5109518;27;20213;-68
2022/10/19 07:26:00;;;;;;;2.47;1.07;;;12.10;99.90;;;;;;5107739;28;20320;-67
2022/10/19 07:28:28;;;;;;;1.60;1.00;;;12.00;99.90;;;;;;5112631;27;20626;-67
2022/10/19 07:30:55;;;;;;;5.03;1.10;;;12.00;99.90;;;;;;5129394;27;20209;-67
2022/10/19 07:33:22;;;;;;;3.03;1.00;;;12.00;99.90;;;;;;5129333;27;20201;-67
2022/10/19 07:35:48;;;;;;;5.40;1.10;;;12.10;99.90;;;;;;5129172;27;20205;-68
2022/10/19 07:38:15;;;;;;;3.27;1.27;;;12.10;99.90;;;;;;5129248;27;20211;-67
2022/10/19 07:40:42;;;;;;;3.77;1.10;;;12.00;99.90;;;;;;5128686;27;20205;-68
2022/10/19 07:43:10;;;;;;;3.20;0.80;;;12.10;99.90;;;;;;5129173;27;20201;-67
2022/10/19 07:45:37;;;;;;;2.80;1.00;;;12.20;99.90;;;;;;5128996;27;20205;-67
2022/10/19 07:48:03;;;;;;;6.47;1.50;;;12.30;99.90;;;;;;5128685;27;20233;-67
2022/10/19 07:50:30;;;;;;;2.03;0.97;;;12.40;99.90;;;;;;5128530;27;20219;-67
2022/10/19 07:52:57;;;;;;;5.20;0.93;;;12.40;99.90;;;;;;5128815;27;20220;-67
2022/10/19 07:55:24;;;;;;;1.77;1.10;;;12.40;99.90;;;;;;5128562;27;20202;-67
2022/10/19 07:57:50;;;;;;;3.30;1.00;;;12.40;99.90;;;;;;5128798;27;20227;-67
2022/10/19 08:00:19;;;;;;;4.53;0.80;;;12.40;99.90;;;;;;5128581;27;20280;-68
2022/10/19 08:02:45;;;;;;;2.70;1.17;;;12.40;99.90;;;;;;5128288;27;20236;-67
2022/10/19 08:05:12;;;;;;;3.90;1.23;;;12.40;99.90;;;;;;5128655;27;20212;-67
2022/10/19 08:07:39;;;;;;;4.53;0.93;;;12.40;99.90;;;;;;5128180;27;20229;-67
2022/10/19 08:10:06;;;;;;;3.97;1.27;;;12.40;99.90;;;;;;5128264;27;20205;-67
2022/10/19 08:12:35;;;;;;;3.33;1.23;;;12.60;99.90;;;;;;5128527;27;20664;-67
2022/10/19 08:15:02;;;;;;;2.73;1.23;;;12.70;99.90;;;;;;5128561;27;20214;-68
2022/10/19 08:17:31;;;;;;;2.63;1.00;;;12.70;99.90;;;;;;5128459;27;20208;-68
2022/10/19 08:19:58;;;;;;;2.53;0.90;;;12.70;99.90;;;;;;5128367;27;20229;-68
2022/10/19 08:22:24;;;;;;;2.67;1.07;;;12.70;99.90;;;;;;5128191;27;20217;-67
2022/10/19 08:24:51;;;;;;;5.40;1.50;;;12.80;99.90;;;;;;5127974;27;20208;-67
2022/10/19 08:27:18;;;;;;;7.73;1.27;;;12.90;99.90;;;;;;5127635;27;20562;-67
2022/10/19 08:29:45;;;;;;;2.57;1.20;;;12.90;99.90;;;;;;5128494;27;20220;-68
2022/10/19 08:32:11;;;;;;;1.60;0.77;;;12.90;99.90;;;;;;5128097;27;20217;-68
2022/10/19 08:34:40;;;;;;;4.97;1.13;;;12.90;99.90;;;;;;5128198;27;20544;-67
2022/10/19 08:37:06;;;;;;;3.33;1.40;;;12.90;99.90;;;;;;5129055;27;20580;-68
2022/10/19 08:39:33;;;;;;;3.30;0.83;;;13.00;99.90;;;;;;5128471;27;20209;-67
2022/10/19 08:42:04;;;;;;;3.07;1.00;;;13.00;99.90;;;;;;5111577;28;20213;-67
2022/10/19 08:44:49;;;;;;;2.20;1.00;;;13.00;99.90;;;;;;5111172;28;20221;-67
2022/10/19 08:47:27;;;;;;;1.63;0.90;;;13.10;99.90;;;;;;5111169;28;20731;-67
2022/10/19 08:49:56;;;;;;;4.00;1.03;;;13.10;99.90;;;;;;5111399;28;20190;-67
2022/10/19 08:52:27;;;;;;;2.70;0.90;;;13.10;99.90;;;;;;5122101;27;20213;-67
2022/10/19 08:54:56;;;;;;;2.83;1.30;;;13.10;99.90;;;;;;5132209;27;20205;-67
2022/10/19 08:57:38;;;;;;;3.47;1.23;;;13.10;99.90;;;;;;5131878;27;20205;-67
2022/10/19 09:00:14;;;;;;;2.60;1.23;;;13.20;99.90;;;;;;5131931;27;20204;-68
2022/10/19 09:02:54;;;;;;;3.53;1.13;;;13.30;99.90;;;;;;5131722;27;20248;-68
2022/10/19 09:05:32;;;;;;;1.43;1.10;;;13.30;99.90;;;;;;5131758;27;20201;-67
2022/10/19 09:07:59;;;;;;;3.13;1.13;;;13.30;99.90;;;;;;5131540;27;20217;-67
2022/10/19 09:10:30;;;;;;;3.03;1.17;;;13.30;99.90;;;;;;5131083;27;20209;-67
2022/10/19 09:12:59;;;;;;;3.40;1.13;;;13.30;99.90;;;;;;5131264;27;20190;-67
2022/10/19 09:15:29;;;;;;;5.80;1.30;;;13.30;99.90;;;;;;5131575;27;20205;-67
2022/10/19 09:17:55;;;;;;;3.03;1.13;;;13.40;99.90;;;;;;5131669;27;20209;-68
2022/10/19 09:20:31;;;;;;;2.00;0.90;;;13.40;99.90;;;;;;5131405;27;20229;-67
2022/10/19 09:23:04;;;;;;;3.00;0.93;;;13.60;99.90;;;;;;5115781;27;20194;-67
2022/10/19 09:25:34;;;;;;;1.43;1.10;;;13.80;99.90;;;;;;5110842;28;20205;-68
2022/10/19 09:28:12;;;;;;;3.03;1.10;;;14.00;99.90;;;;;;5110697;28;20704;-68
2022/10/19 09:30:42;;;;;;;2.23;1.10;;;14.00;99.90;;;;;;5110988;28;20186;-68
2022/10/19 09:33:18;;;;;;;2.23;1.27;;;14.10;99.90;;;;;;5110916;28;20210;-68
2022/10/19 09:35:50;;;;;;;1.90;1.03;;;14.20;99.90;;;;;;5113984;27;20200;-68
2022/10/19 09:38:18;;;;;;;4.07;1.13;;;14.40;99.90;;;;;;5131211;27;20205;-68
2022/10/19 09:40:45;;;;;;;3.63;1.27;;;14.50;99.90;;;;;;5131110;27;20212;-67
2022/10/19 09:43:20;;;;;;;1.63;0.97;;;14.60;99.90;;;;;;5131242;27;20212;-67
2022/10/19 09:45:52;;;;;;;1.87;1.00;;;14.60;99.90;;;;;;5131359;27;20269;-67
2022/10/19 09:48:28;;;;;;;3.27;1.30;;;14.40;99.90;;;;;;5128369;27;20213;-68
2022/10/19 09:50:58;;;;;;;2.53;1.23;;;14.40;99.90;;;;;;5110286;28;20194;-68
2022/10/19 09:53:26;;;;;;;3.17;1.27;;;14.40;99.90;;;;;;5110713;28;20206;-68
2022/10/19 09:55:59;;;;;;;1.87;1.00;;;14.30;99.90;;;;;;5110346;28;20198;-67
2022/10/19 09:58:28;;;;;;;4.70;1.20;;;14.20;99.90;;;;;;5110566;28;20201;-68
2022/10/19 10:00:56;;;;;;;1.93;1.10;;;14.10;99.90;;;;;;5109713;28;20210;-68
2022/10/19 10:03:29;;;;;;;5.40;1.43;;;14.10;99.90;;;;;;5109952;28;20263;-67
2022/10/19 10:05:59;;;;;;;4.37;1.20;;;14.00;99.90;;;;;;5110469;28;20205;-67
2022/10/19 10:08:29;;;;;;;3.60;0.97;;;14.00;99.90;;;;;;5110062;28;20229;-67
2022/10/19 10:11:10;;;;;;;3.83;1.00;;;14.00;99.90;;;;;;5110046;28;20206;-68
2022/10/19 10:13:39;;;;;;;3.90;1.10;;;14.00;99.90;;;;;;5109743;28;20276;-68
2022/10/19 10:16:08;;;;;;;2.20;1.13;;;14.00;99.90;;;;;;5110101;28;20206;-67
2022/10/19 10:18:39;;;;;;;4.40;1.37;;;14.10;99.90;;;;;;5113577;27;20279;-67
2022/10/19 10:21:14;;;;;;;4.00;1.27;;;14.10;99.90;;;;;;5109821;28;20187;-68
2022/10/19 10:23:40;;;;;;;5.67;1.20;;;14.30;99.90;;;;;;5109564;28;20193;-68
2022/10/19 10:26:17;;;;;;;2.40;1.03;;;14.50;99.90;;;;;;5109262;28;20209;-68
2022/10/19 10:28:47;;;;;;;4.03;1.13;;;14.80;99.90;;;;;;5109811;28;20271;-67
2022/10/19 10:31:14;;;;;;;1.33;0.90;;;14.90;99.90;;;;;;5109288;28;20658;-68
2022/10/19 10:33:41;;;;;;;2.10;1.00;;;14.90;99.90;;;;;;5126909;27;20201;-68
2022/10/19 10:36:11;;;;;;;4.23;0.87;;;14.80;99.90;;;;;;5129453;27;20224;-68
2022/10/19 10:38:41;;;;;;;1.93;0.90;;;14.80;99.90;;;;;;5130361;27;20216;-67
2022/10/19 10:41:14;;;;;;;1.40;0.87;;;14.70;99.90;;;;;;5129980;27;20197;-67
2022/10/19 10:43:52;;;;;;;1.80;0.70;;;14.70;99.90;;;;;;5129892;27;20565;-68
2022/10/19 10:46:22;;;;;;;2.93;0.90;;;14.70;99.90;;;;;;5129808;27;20558;-68
2022/10/19 10:48:55;;;;;;;0.77;0.77;;;14.70;99.90;;;;;;5130025;27;20690;-68
2022/10/19 10:51:44;;;;;;;2.37;1.03;;;14.70;99.90;;;;;;5127595;27;20190;-67
2022/10/19 10:54:18;;;;;;;1.97;0.90;;;14.70;99.90;;;;;;5109285;28;20282;-67
2022/10/19 10:56:59;;;;;;;2.50;1.20;;;14.80;99.90;;;;;;5109129;28;20198;-67
2022/10/19 10:59:31;;;;;;;1.57;0.80;;;14.90;99.90;;;;;;5121050;27;20197;-67
2022/10/19 11:02:03;;;;;;;0.90;0.60;;;15.10;99.90;;;;;;5129428;27;20645;-68
2022/10/19 11:04:35;;;;;;;2.73;0.70;;;15.30;99.90;;;;;;5129604;27;20398;-67
2022/10/19 11:07:15;;;;;;;3.23;0.67;;;15.50;99.90;;;;;;5129305;27;20197;-67
2022/10/19 11:09:46;;;;;;;1.37;0.77;;;15.70;99.90;;;;;;5129409;27;20583;-68
2022/10/19 11:12:18;;;;;;;2.37;0.87;;;15.80;99.90;;;;;;5128821;27;20205;-68
2022/10/19 11:14:49;;;;;;;5.33;1.00;;;16.00;99.90;;;;;;5117608;27;20805;-68
2022/10/19 11:17:19;;;;;;;1.47;0.63;;;16.10;99.90;;;;;;5108839;28;20221;-68
2022/10/19 11:19:49;;;;;;;2.00;0.90;;;16.30;99.90;;;;;;5108848;28;20229;-68
2022/10/19 11:22:24;;;;;;;1.13;0.80;;;16.40;99.90;;;;;;5118334;27;20293;-68
2022/10/19 11:25:04;;;;;;;1.93;0.77;;;16.60;99.90;;;;;;5129539;27;20189;-68
2022/10/19 11:27:43;;;;;;;2.20;0.77;;;16.80;99.90;;;;;;5128859;27;20190;-68
2022/10/19 11:30:13;;;;;;;0.93;0.67;;;17.10;99.90;;;;;;5128871;27;20204;-68
2022/10/19 11:32:58;;;;;;;1.87;0.70;;;17.30;99.90;;;;;;5108806;28;20205;-68
2022/10/19 11:35:45;;;;;;;3.27;0.70;;;17.30;99.90;;;;;;5121185;27;20201;-69
2022/10/19 11:38:33;;;;;;;3.77;0.80;;;17.20;99.90;;;;;;5128879;27;20200;-67
2022/10/19 11:41:07;;;;;;;2.40;0.60;;;17.10;99.90;;;;;;5128942;27;20190;-68
2022/10/19 11:43:42;;;;;;;1.00;0.53;;;17.10;99.90;;;;;;5129148;27;20581;-68
2022/10/19 11:46:16;;;;;;;1.60;0.60;;;17.00;99.90;;;;;;5128762;27;20585;-68
2022/10/19 11:49:02;;;;;;;2.30;0.50;;;17.10;99.90;;;;;;5123462;27;20221;-68
2022/10/19 11:51:34;;;;;;;0.97;0.60;;;17.30;99.90;;;;;;5108444;28;20209;-68
2022/10/19 11:54:16;;;;;;;0.50;0.40;;;17.30;99.90;;;;;;5108419;27;20186;-69
2022/10/19 11:56:48;;;;;;;1.07;0.50;;;17.00;99.90;;;;;;5108189;28;20186;-68
2022/10/19 11:59:24;;;;;;;3.23;0.73;;;16.90;99.90;;;;;;5108139;28;20198;-68
2022/10/19 12:02:03;;;;;;;1.70;0.50;;;16.70;99.90;;;;;;5107938;28;20233;-68
2022/10/19 12:04:43;;;;;;;3.37;1.10;;;16.50;99.90;;;;;;5107960;28;20357;-68
2022/10/19 12:07:26;;;;;;;0.90;0.90;;;16.60;99.90;;;;;;5107558;27;20688;-68
2022/10/19 12:10:04;;;;;;;3.13;0.70;;;17.00;99.90;;;;;;5110113;28;20225;-68
2022/10/19 12:12:34;;;;;;;2.30;0.90;;;17.30;99.90;;;;;;5127504;27;20189;-68
2022/10/19 12:15:16;;;;;;;1.53;0.43;;;17.60;99.90;;;;;;5128146;27;20675;-68
2022/10/19 12:17:46;;;;;;;1.07;0.60;;;17.90;99.90;;;;;;5128777;27;20561;-68
2022/10/19 12:20:20;;;;;;;0.63;0.53;;;18.10;99.90;;;;;;5128357;27;20225;-68
2022/10/19 12:22:48;;;;;;;1.30;0.80;;;18.30;99.90;;;;;;5128409;27;20205;-68
2022/10/19 12:25:19;;;;;;;0.80;0.60;;;18.60;99.90;;;;;;5128084;27;20235;-67
2022/10/19 12:27:48;;;;;;;1.23;0.70;;;18.70;99.90;;;;;;5128208;27;20190;-67
2022/10/19 12:30:17;;;;;;;2.63;0.40;;;18.40;99.90;;;;;;5128254;27;20243;-67
2022/10/19 12:32:54;;;;;;;0.63;0.40;;;18.00;99.90;;;;;;5128104;27;20221;-67
2022/10/19 12:35:47;;;;;;;1.53;0.70;;;17.70;99.90;;;;;;5116001;27;20235;-67
2022/10/19 12:38:21;;;;;;;1.57;0.80;;;17.40;99.90;;;;;;5107606;28;20194;-67
2022/10/19 12:40:56;;;;;;;1.67;0.70;;;17.10;99.90;;;;;;5107443;28;20194;-67
2022/10/19 12:43:33;;;;;;;1.17;0.33;;;16.90;99.90;;;;;;5106882;28;20723;-67
2022/10/19 12:46:08;;;;;;;1.93;0.73;;;16.70;99.90;;;;;;5107290;28;20193;-68
2022/10/19 12:48:38;;;;;;;2.97;0.67;;;16.60;99.90;;;;;;5126957;28;20228;-68
2022/10/19 12:51:07;;;;;;;2.80;1.00;;;16.60;99.90;;;;;;5127745;27;20244;-67
2022/10/19 12:53:37;;;;;;;0.60;0.57;;;16.50;99.90;;;;;;5107517;28;20255;-67
2022/10/19 12:56:11;;;;;;;0.90;0.60;;;16.50;99.90;;;;;;5107538;28;20594;-68
2022/10/19 12:58:45;;;;;;;1.10;0.70;;;16.60;99.90;;;;;;5108465;28;20649;-68
2022/10/19 13:01:18;;;;;;;3.27;0.80;;;16.50;99.90;;;;;;5124695;28;20228;-69
2022/10/19 13:03:46;;;;;;;1.17;0.80;;;16.40;99.90;;;;;;5128182;27;20201;-68